createdAt,value
2023-11-27T00:00:43.990Z,5.32
2023-11-27T00:01:44.085Z,5.32
2023-11-27T00:02:43.967Z,5.32
2023-11-27T00:03:43.951Z,5.32
2023-11-27T00:04:43.946Z,5.29
2023-11-27T00:05:43.869Z,5.30
2023-11-27T00:06:43.861Z,5.29
2023-11-27T00:07:43.826Z,5.29
2023-11-27T00:08:43.806Z,5.28
2023-11-27T00:09:43.895Z,5.29
2023-11-27T00:10:43.932Z,5.29
2023-11-27T00:11:43.799Z,5.29
2023-11-27T00:12:43.787Z,5.28
2023-11-27T00:13:43.975Z,5.28
2023-11-27T00:14:43.777Z,5.28
2023-11-27T00:15:43.827Z,5.28
2023-11-27T00:16:43.794Z,5.25
2023-11-27T00:17:43.835Z,5.26
2023-11-27T00:18:43.743Z,5.26
2023-11-27T00:19:43.739Z,5.28
2023-11-27T00:20:43.739Z,5.29
2023-11-27T00:21:43.721Z,5.28
2023-11-27T00:22:43.671Z,5.29
2023-11-27T00:23:43.658Z,5.29
2023-11-27T00:24:43.694Z,5.26
2023-11-27T00:25:43.645Z,5.29
2023-11-27T00:26:43.638Z,5.28
2023-11-27T00:27:43.798Z,5.28
2023-11-27T00:28:43.614Z,5.29
2023-11-27T00:29:43.606Z,5.28
2023-11-27T00:30:43.668Z,5.25
2023-11-27T00:31:43.728Z,5.23
2023-11-27T00:32:43.570Z,5.23
2023-11-27T00:33:43.570Z,5.23
2023-11-27T00:34:43.553Z,5.21
2023-11-27T00:35:43.559Z,5.21
2023-11-27T00:36:43.555Z,5.18
2023-11-27T00:37:43.553Z,5.18
2023-11-27T00:38:43.493Z,5.17
2023-11-27T00:39:43.884Z,5.15
2023-11-27T00:40:43.463Z,5.15
2023-11-27T00:41:43.470Z,5.17
2023-11-27T00:42:43.489Z,5.12
2023-11-27T00:43:43.480Z,5.14
2023-11-27T00:44:44.896Z,5.15
2023-11-27T00:45:43.454Z,5.14
2023-11-27T00:46:43.421Z,5.15
2023-11-27T00:47:43.485Z,5.15
2023-11-27T00:48:43.404Z,5.15
2023-11-27T00:49:43.394Z,5.12
2023-11-27T00:50:43.361Z,5.14
2023-11-27T00:51:43.384Z,5.14
2023-11-27T00:52:43.336Z,5.14
2023-11-27T00:53:43.355Z,5.14
2023-11-27T00:54:43.434Z,5.12
2023-11-27T00:55:43.326Z,5.15
2023-11-27T00:56:43.302Z,5.14
2023-11-27T00:57:43.339Z,5.14
2023-11-27T00:58:43.277Z,5.15
2023-11-27T00:59:43.274Z,5.15
2023-11-27T01:00:43.313Z,5.15
2023-11-27T01:01:43.286Z,5.14
2023-11-27T01:02:43.332Z,5.15
2023-11-27T01:03:43.292Z,5.14
2023-11-27T01:04:43.213Z,5.15
2023-11-27T01:05:43.237Z,5.14
2023-11-27T01:06:43.234Z,5.17
2023-11-27T01:07:43.215Z,5.17
2023-11-27T01:08:43.216Z,5.15
2023-11-27T01:09:43.227Z,5.17
2023-11-27T01:10:43.174Z,5.15
2023-11-27T01:11:43.163Z,5.15
2023-11-27T01:12:43.234Z,5.15
2023-11-27T01:13:43.145Z,5.15
2023-11-27T01:14:43.157Z,5.17
2023-11-27T01:15:43.302Z,5.15
2023-11-27T01:16:43.080Z,5.15
2023-11-27T01:17:43.106Z,5.14
2023-11-27T01:18:43.111Z,5.12
2023-11-27T01:19:43.065Z,5.12
2023-11-27T01:20:43.064Z,5.12
2023-11-27T01:21:43.104Z,5.12
2023-11-27T01:22:47.712Z,5.10
2023-11-27T01:23:43.023Z,5.10
2023-11-27T01:24:43.030Z,5.11
2023-11-27T01:25:43.044Z,5.10
2023-11-27T01:26:43.063Z,5.11
2023-11-27T01:27:43.068Z,5.08
2023-11-27T01:28:43.106Z,5.08
2023-11-27T01:29:42.972Z,5.08
2023-11-27T01:30:43.035Z,5.10
2023-11-27T01:31:43.012Z,5.10
2023-11-27T01:32:42.993Z,5.07
2023-11-27T01:33:43.094Z,5.07
2023-11-27T01:34:43.027Z,5.08
2023-11-27T01:35:42.926Z,5.10
2023-11-27T01:36:42.985Z,5.07
2023-11-27T01:37:42.898Z,5.04
2023-11-27T01:38:42.949Z,5.05
2023-11-27T01:39:42.975Z,5.05
2023-11-27T01:40:42.832Z,5.04
2023-11-27T01:41:42.949Z,5.05
2023-11-27T01:42:42.920Z,5.04
2023-11-27T01:43:42.817Z,5.02
2023-11-27T01:44:42.916Z,5.00
2023-11-27T01:45:42.818Z,5.02
2023-11-27T01:46:42.818Z,5.00
2023-11-27T01:47:42.787Z,5.00
2023-11-27T01:48:42.813Z,5.02
2023-11-27T01:49:42.730Z,5.02
2023-11-27T01:50:42.762Z,5.00
2023-11-27T01:51:42.747Z,5.00
2023-11-27T01:52:42.719Z,4.99
2023-11-27T01:53:42.702Z,5.00
2023-11-27T01:54:42.720Z,5.00
2023-11-27T01:55:42.667Z,4.99
2023-11-27T01:56:42.712Z,4.99
2023-11-27T01:57:42.701Z,4.99
2023-11-27T01:58:42.655Z,5.00
2023-11-27T01:59:42.626Z,5.00
2023-11-27T02:00:42.709Z,4.97
2023-11-27T02:01:42.710Z,4.97
2023-11-27T02:02:42.679Z,4.99
2023-11-27T02:03:42.662Z,4.97
2023-11-27T02:04:42.594Z,4.99
2023-11-27T02:05:42.561Z,5.00
2023-11-27T02:06:42.652Z,4.97
2023-11-27T02:07:42.542Z,5.00
2023-11-27T02:08:42.580Z,4.99
2023-11-27T02:09:42.560Z,4.99
2023-11-27T02:10:42.526Z,4.99
2023-11-27T02:11:42.498Z,4.99
2023-11-27T02:12:42.535Z,4.99
2023-11-27T02:13:42.480Z,4.97
2023-11-27T02:14:42.498Z,4.99
2023-11-27T02:15:42.471Z,5.00
2023-11-27T02:16:42.494Z,4.99
2023-11-27T02:17:42.477Z,4.99
2023-11-27T02:18:42.445Z,4.97
2023-11-27T02:19:42.453Z,4.97
2023-11-27T02:20:42.421Z,4.96
2023-11-27T02:21:42.444Z,4.96
2023-11-27T02:22:42.394Z,4.96
2023-11-27T02:23:42.399Z,4.99
2023-11-27T02:24:42.381Z,4.97
2023-11-27T02:25:42.379Z,4.97
2023-11-27T02:26:42.366Z,4.97
2023-11-27T02:27:42.371Z,4.97
2023-11-27T02:28:42.349Z,4.97
2023-11-27T02:29:42.360Z,4.96
2023-11-27T07:00:51.860Z,4.23
2023-11-27T07:01:52.886Z,4.23
2023-11-27T07:02:52.819Z,4.23
2023-11-27T07:03:52.864Z,4.23
2023-11-27T07:04:52.796Z,4.22
2023-11-27T07:05:52.786Z,4.23
2023-11-27T07:06:52.776Z,4.22
2023-11-27T07:07:52.790Z,4.23
2023-11-27T07:08:52.709Z,4.23
2023-11-27T07:09:52.783Z,4.23
2023-11-27T07:10:55.657Z,4.23
2023-11-27T07:11:52.725Z,4.23
2023-11-27T07:12:52.708Z,4.22
2023-11-27T07:13:52.675Z,4.22
2023-11-27T07:14:52.650Z,4.23
2023-11-27T07:15:53.620Z,4.22
2023-11-27T07:16:52.698Z,4.23
2023-11-27T07:17:58.096Z,4.23
2023-11-27T07:18:52.761Z,4.24
2023-11-27T07:19:53.470Z,4.26
2023-11-27T07:20:52.578Z,4.23
2023-11-27T07:21:52.685Z,4.24
2023-11-27T07:22:52.555Z,4.26
2023-11-27T07:23:52.558Z,4.28
2023-11-27T07:24:52.548Z,4.24
2023-11-27T07:25:52.543Z,4.24
2023-11-27T07:26:52.529Z,4.28
2023-11-27T07:27:52.657Z,4.28
2023-11-27T07:28:52.535Z,4.31
2023-11-27T07:29:52.545Z,4.30
2023-11-27T07:30:52.570Z,4.30
2023-11-27T07:31:52.574Z,4.31
2023-11-27T07:32:52.513Z,4.32
2023-11-27T07:33:52.533Z,4.34
2023-11-27T07:34:52.440Z,4.30
2023-11-27T07:35:52.492Z,4.32
2023-11-27T07:36:52.457Z,4.31
2023-11-27T07:37:52.421Z,4.31
2023-11-27T07:38:52.395Z,4.31
2023-11-27T07:39:52.438Z,4.31
2023-11-27T07:40:52.371Z,4.32
2023-11-27T07:41:52.384Z,4.32
2023-11-27T07:42:52.368Z,4.32
2023-11-27T07:43:52.401Z,4.34
2023-11-27T07:44:52.338Z,4.34
2023-11-27T07:45:52.386Z,4.34
2023-11-27T07:46:52.435Z,4.34
2023-11-27T07:47:53.526Z,4.34
2023-11-27T07:48:52.288Z,4.35
2023-11-27T07:49:52.317Z,4.34
2023-11-27T07:50:52.278Z,4.34
2023-11-27T07:51:52.322Z,4.34
2023-11-27T07:52:52.265Z,4.34
2023-11-27T07:53:52.257Z,4.34
2023-11-27T07:54:52.235Z,4.32
2023-11-27T07:55:52.267Z,4.30
2023-11-27T07:56:52.212Z,4.28
2023-11-27T07:57:53.194Z,4.31
2023-11-27T07:58:52.188Z,4.32
2023-11-27T07:59:52.185Z,4.32
2023-11-27T08:00:52.171Z,4.31
2023-11-27T08:01:52.383Z,4.31
2023-11-27T08:02:52.152Z,4.32
2023-11-27T08:03:52.259Z,4.30
2023-11-27T08:04:52.269Z,4.30
2023-11-27T08:05:52.130Z,4.31
2023-11-27T08:06:52.108Z,4.31
2023-11-27T08:07:52.916Z,4.30
2023-11-27T08:08:52.084Z,4.30
2023-11-27T08:09:52.117Z,4.28
2023-11-27T08:10:52.077Z,4.28
2023-11-27T08:11:52.104Z,4.28
2023-11-27T08:12:52.046Z,4.31
2023-11-27T08:13:52.074Z,4.32
2023-11-27T08:14:52.058Z,4.31
2023-11-27T08:15:52.053Z,4.34
2023-11-27T08:16:52.188Z,4.30
2023-11-27T08:17:52.042Z,4.31
2023-11-27T08:18:52.021Z,4.32
2023-11-27T08:19:51.993Z,4.31
2023-11-27T08:20:51.992Z,4.30
2023-11-27T08:21:51.999Z,4.31
2023-11-27T08:22:51.960Z,4.30
2023-11-27T08:30:55.227Z,4.30
2023-11-27T08:31:56.063Z,4.24
2023-11-27T08:32:56.040Z,4.26
2023-11-27T08:33:56.092Z,4.24
2023-11-27T08:34:55.996Z,4.26
2023-11-27T08:35:56.019Z,4.26
2023-11-27T08:36:55.987Z,4.24
2023-11-27T08:37:55.996Z,4.24
2023-11-27T08:38:55.961Z,4.28
2023-11-27T08:39:55.994Z,4.26
2023-11-27T08:40:55.926Z,4.26
2023-11-27T08:41:56.052Z,4.26
2023-11-27T08:42:55.950Z,4.26
2023-11-27T08:43:55.945Z,4.28
2023-11-27T08:44:55.901Z,4.23
2023-11-27T08:45:55.972Z,4.23
2023-11-27T08:46:55.926Z,4.24
2023-11-27T08:47:55.910Z,4.26
2023-11-27T08:48:55.882Z,4.22
2023-11-27T08:49:55.875Z,4.24
2023-11-27T08:50:55.830Z,4.24
2023-11-27T08:51:55.865Z,4.26
2023-11-27T08:52:55.798Z,4.24
2023-11-27T08:53:55.827Z,4.24
2023-11-27T08:54:55.829Z,4.24
2023-11-27T08:55:55.802Z,4.24
2023-11-27T08:56:55.817Z,4.24
2023-11-27T08:57:55.803Z,4.28
2023-11-27T08:58:55.741Z,4.26
2023-11-27T08:59:55.769Z,4.26
2023-11-27T09:00:55.761Z,4.26
2023-11-27T09:01:55.844Z,4.28
2023-11-27T09:02:57.024Z,4.26
2023-11-27T09:03:55.796Z,4.26
2023-11-27T09:04:55.679Z,4.26
2023-11-27T09:05:55.740Z,4.26
2023-11-27T09:06:55.672Z,4.30
2023-11-27T09:07:55.676Z,4.28
2023-11-27T09:08:55.694Z,4.30
2023-11-27T09:09:55.693Z,4.28
2023-11-27T09:10:55.695Z,4.24
2023-11-27T09:11:55.620Z,4.22
2023-11-27T09:12:55.668Z,4.19
2023-11-27T09:13:55.644Z,4.19
2023-11-27T09:14:55.598Z,4.17
2023-11-27T09:15:55.724Z,4.17
2023-11-27T09:16:56.868Z,4.16
2023-11-27T09:17:55.593Z,4.14
2023-11-27T09:18:55.622Z,4.13
2023-11-27T09:19:55.549Z,4.12
2023-11-27T09:20:55.546Z,4.13
2023-11-27T09:21:55.547Z,4.12
2023-11-27T09:22:55.512Z,4.10
2023-11-27T09:23:55.528Z,4.10
2023-11-27T09:24:55.480Z,4.12
2023-11-27T09:25:55.495Z,4.10
2023-11-27T09:26:55.477Z,4.08
2023-11-27T09:27:55.494Z,4.10
2023-11-27T09:28:55.476Z,4.06
2023-11-27T09:29:55.436Z,4.06
2023-11-27T09:30:55.445Z,4.06
2023-11-27T09:31:55.509Z,4.04
2023-11-27T09:32:55.432Z,4.02
2023-11-27T09:33:55.408Z,3.96
2023-11-27T09:34:55.380Z,3.94
2023-11-27T09:35:55.384Z,3.92
2023-11-27T09:37:02.496Z,3.91
2023-11-27T09:37:55.388Z,3.91
2023-11-27T09:38:55.328Z,3.91
2023-11-27T09:39:55.329Z,3.88
2023-11-27T09:40:55.319Z,3.87
2023-11-27T09:41:55.318Z,3.86
2023-11-27T09:42:55.370Z,3.86
2023-11-27T09:43:55.310Z,3.87
2023-11-27T09:44:55.281Z,3.88
2023-11-27T09:45:55.272Z,3.87
2023-11-27T09:46:55.253Z,3.86
2023-11-27T09:47:55.314Z,3.86
2023-11-27T09:48:55.243Z,3.83
2023-11-27T09:49:55.243Z,3.83
2023-11-27T09:50:55.235Z,3.83
2023-11-27T09:51:55.226Z,3.83
2023-11-27T09:52:55.204Z,3.81
2023-11-27T09:53:55.196Z,3.81
2023-11-27T09:54:55.196Z,3.81
2023-11-27T09:55:55.278Z,3.78
2023-11-27T09:56:55.184Z,3.78
2023-11-27T09:57:55.177Z,3.77
2023-11-27T09:58:55.123Z,3.78
2023-11-27T09:59:55.154Z,3.77
2023-11-27T10:00:55.234Z,3.76
2023-11-27T10:01:55.295Z,3.76
2023-11-27T10:02:55.301Z,3.77
2023-11-27T10:03:55.108Z,3.77
2023-11-27T10:04:55.108Z,3.77
2023-11-27T10:05:55.107Z,3.76
2023-11-27T10:06:55.108Z,3.77
2023-11-27T10:07:55.110Z,3.78
2023-11-27T10:08:55.036Z,3.78
2023-11-27T10:09:55.037Z,3.77
2023-11-27T10:10:55.037Z,3.78
2023-11-27T10:11:55.001Z,3.77
2023-11-27T10:12:55.062Z,3.78
2023-11-27T10:14:55.022Z,3.77
2023-11-27T10:15:55.085Z,3.80
2023-11-27T10:16:55.036Z,3.77
2023-11-27T10:19:44.014Z,3.74
2023-11-27T10:23:11.568Z,3.73
2023-11-27T10:24:12.588Z,3.76
2023-11-27T10:25:12.533Z,3.77
2023-11-27T10:26:12.518Z,3.77
2023-11-27T10:27:12.521Z,3.74
2023-11-27T10:28:14.292Z,3.74
2023-11-27T10:29:12.502Z,3.74
2023-11-27T10:30:12.495Z,3.70
2023-11-27T10:31:12.525Z,3.69
2023-11-27T10:32:12.576Z,3.69
2023-11-27T10:33:12.524Z,3.68
2023-11-27T10:34:12.437Z,3.68
2023-11-27T10:35:12.459Z,3.68
2023-11-27T10:36:12.480Z,3.65
2023-11-27T10:37:12.407Z,3.63
2023-11-27T10:38:12.401Z,3.59
2023-11-27T10:39:12.362Z,3.58
2023-11-27T10:40:12.387Z,3.56
2023-11-27T10:41:12.378Z,3.58
2023-11-27T10:42:12.349Z,3.58
2023-11-27T10:43:12.449Z,3.59
2023-11-27T10:44:12.374Z,3.56
2023-11-27T10:45:12.301Z,3.58
2023-11-27T10:46:12.363Z,3.59
2023-11-27T10:47:12.383Z,3.58
2023-11-27T10:48:12.617Z,3.58
2023-11-27T10:49:12.398Z,3.55
2023-11-27T10:50:12.272Z,3.55
2023-11-27T10:51:12.248Z,3.56
2023-11-27T10:52:12.285Z,3.55
2023-11-27T10:53:12.278Z,3.53
2023-11-27T10:54:12.222Z,3.53
2023-11-27T10:55:12.212Z,3.48
2023-11-27T10:56:12.206Z,3.51
2023-11-27T10:57:12.189Z,3.48
2023-11-27T10:58:12.199Z,3.47
2023-11-27T10:59:12.204Z,3.45
2023-11-27T11:00:12.219Z,3.47
2023-11-27T11:01:12.190Z,3.44
2023-11-27T11:02:12.217Z,3.44
2023-11-27T11:03:12.130Z,3.42
2023-11-27T11:04:12.216Z,3.40
2023-11-27T11:05:12.606Z,3.36
2023-11-27T11:06:12.088Z,3.37
2023-11-27T11:07:12.090Z,3.40
2023-11-27T11:08:12.114Z,3.40
2023-11-27T11:09:12.185Z,3.41
2023-11-27T11:10:12.147Z,3.36
2023-11-27T11:11:12.025Z,3.40
2023-11-27T11:12:12.035Z,3.36
2023-11-27T11:13:12.033Z,3.29
2023-11-27T11:14:12.018Z,3.28
2023-11-27T11:15:12.012Z,3.25
2023-11-27T11:16:12.158Z,3.23
2023-11-27T11:17:12.035Z,3.23
2023-11-27T11:18:12.319Z,3.23
2023-11-27T11:19:11.995Z,3.22
2023-11-27T11:20:11.991Z,3.22
2023-11-27T11:21:11.934Z,3.19
2023-11-27T11:22:11.984Z,3.19
2023-11-27T11:23:12.143Z,3.18
2023-11-27T11:24:11.936Z,3.16
2023-11-27T11:25:11.928Z,3.16
2023-11-27T11:26:11.899Z,3.18
2023-11-27T11:27:11.889Z,3.21
2023-11-27T11:28:11.921Z,3.19
2023-11-27T11:29:11.869Z,3.19
2023-11-27T11:30:11.932Z,3.18
2023-11-27T11:31:11.974Z,3.19
2023-11-27T11:32:11.830Z,3.19
2023-11-27T11:33:11.820Z,3.22
2023-11-27T11:34:11.903Z,3.21
2023-11-27T11:35:11.796Z,3.21
2023-11-27T11:36:11.789Z,3.18
2023-11-27T11:37:11.792Z,3.16
2023-11-27T11:38:11.805Z,3.16
2023-11-27T11:39:11.779Z,3.14
2023-11-27T11:40:12.607Z,3.10
2023-11-27T11:41:11.715Z,3.11
2023-11-27T11:42:11.748Z,3.08
2023-11-27T11:43:11.851Z,3.08
2023-11-27T11:44:11.728Z,3.08
2023-11-27T11:45:11.967Z,3.07
2023-11-27T11:46:11.774Z,3.05
2023-11-27T11:47:11.762Z,3.05
2023-11-27T11:48:11.846Z,3.00
2023-11-27T11:49:11.727Z,2.97
2023-11-27T11:50:11.689Z,2.93
2023-11-27T11:51:11.686Z,2.93
2023-11-27T11:52:11.701Z,2.93
2023-11-27T11:53:11.661Z,2.89
2023-11-27T11:54:11.614Z,2.87
2023-11-27T11:55:11.739Z,2.89
2023-11-27T11:56:11.614Z,2.89
2023-11-27T11:57:11.573Z,2.86
2023-11-27T11:58:11.599Z,2.85
2023-11-27T11:59:11.557Z,2.83
2023-11-27T12:00:11.538Z,2.85
2023-11-27T12:01:11.555Z,2.82
2023-11-27T12:02:11.733Z,2.80
2023-11-27T12:03:11.607Z,2.75
2023-11-27T12:04:11.651Z,2.75
2023-11-27T12:05:11.526Z,2.74
2023-11-27T12:06:11.474Z,2.74
2023-11-27T12:07:11.498Z,2.71
2023-11-27T12:08:11.483Z,2.69
2023-11-27T12:09:11.434Z,2.67
2023-11-27T12:10:11.516Z,2.65
2023-11-27T12:11:11.415Z,2.67
2023-11-27T12:12:11.430Z,2.64
2023-11-27T12:13:11.486Z,2.60
2023-11-27T12:14:11.449Z,2.54
2023-11-27T12:15:11.387Z,2.53
2023-11-27T12:16:11.410Z,2.51
2023-11-27T12:17:11.429Z,2.50
2023-11-27T12:18:11.526Z,2.49
2023-11-27T12:19:11.414Z,2.47
2023-11-27T12:20:11.391Z,2.46
2023-11-27T12:21:11.321Z,2.46
2023-11-27T12:22:11.391Z,2.46
2023-11-27T12:23:11.299Z,2.46
2023-11-27T12:24:11.351Z,2.44
2023-11-27T12:25:11.289Z,2.42
2023-11-27T12:26:11.357Z,2.43
2023-11-27T12:27:11.280Z,2.42
2023-11-27T12:28:11.330Z,2.42
2023-11-27T12:29:11.222Z,2.43
2023-11-27T12:30:11.302Z,2.42
2023-11-27T12:31:11.276Z,2.44
2023-11-27T12:32:11.296Z,2.44
2023-11-27T12:33:11.248Z,2.46
2023-11-27T12:34:11.213Z,2.44
2023-11-27T12:35:11.187Z,2.43
2023-11-27T12:36:11.201Z,2.44
2023-11-27T12:37:11.179Z,2.44
2023-11-27T12:38:11.198Z,2.39
2023-11-27T12:39:11.125Z,2.42
2023-11-27T12:40:11.169Z,2.39
2023-11-27T12:41:11.114Z,2.42
2023-11-27T12:42:11.151Z,2.39
2023-11-27T12:43:11.118Z,2.39
2023-11-27T12:44:11.084Z,2.39
2023-11-27T12:45:11.066Z,2.39
2023-11-27T12:46:11.343Z,2.39
2023-11-27T12:47:11.280Z,2.36
2023-11-27T12:48:11.111Z,2.36
2023-11-27T12:49:11.078Z,2.36
2023-11-27T12:50:11.057Z,2.33
2023-11-27T12:51:11.001Z,2.33
2023-11-27T12:52:11.108Z,2.31
2023-11-27T12:53:11.025Z,2.32
2023-11-27T12:54:11.052Z,2.32
2023-11-27T12:55:11.042Z,2.31
2023-11-27T12:56:11.087Z,2.29
2023-11-27T12:57:11.009Z,2.28
2023-11-27T12:58:12.173Z,2.26
2023-11-27T12:59:10.935Z,2.26
2023-11-27T13:00:10.911Z,2.25
2023-11-27T13:01:11.288Z,2.24
2023-11-27T13:02:11.066Z,2.24
2023-11-27T13:03:10.943Z,2.24
2023-11-27T13:04:10.951Z,2.24
2023-11-27T13:05:10.892Z,2.20
2023-11-27T13:06:10.898Z,2.17
2023-11-27T13:07:11.263Z,2.15
2023-11-27T13:08:10.846Z,2.15
2023-11-27T13:09:10.820Z,2.15
2023-11-27T13:10:10.937Z,2.14
2023-11-27T13:11:10.821Z,2.11
2023-11-27T13:12:10.812Z,2.11
2023-11-27T13:13:10.792Z,2.11
2023-11-27T13:14:10.776Z,2.08
2023-11-27T13:15:10.829Z,2.08
2023-11-27T13:16:10.838Z,2.06
2023-11-27T13:17:11.072Z,2.02
2023-11-27T13:18:10.755Z,2.04
2023-11-27T13:19:10.794Z,2.02
2023-11-27T13:20:10.749Z,2.04
2023-11-27T13:21:10.806Z,2.06
2023-11-27T13:22:10.780Z,2.06
2023-11-27T13:23:10.763Z,2.02
2023-11-27T13:24:10.730Z,2.00
2023-11-27T13:25:10.708Z,2.00
2023-11-27T13:26:10.689Z,2.00
2023-11-27T13:27:10.632Z,1.97
2023-11-27T13:28:10.638Z,1.95
2023-11-27T13:29:10.606Z,1.92
2023-11-27T13:30:10.629Z,1.92
2023-11-27T13:31:10.650Z,1.91
2023-11-27T13:32:10.714Z,1.91
2023-11-27T13:33:10.597Z,1.89
2023-11-27T13:34:10.631Z,1.92
2023-11-27T13:35:10.551Z,1.91
2023-11-27T13:36:10.575Z,1.94
2023-11-27T13:37:10.574Z,1.94
2023-11-27T13:38:10.549Z,1.91
2023-11-27T13:39:10.528Z,1.92
2023-11-27T13:40:10.572Z,1.89
2023-11-27T13:41:10.480Z,1.88
2023-11-27T13:44:27.849Z,1.85
2023-11-27T13:45:34.840Z,1.80
2023-11-27T13:46:28.871Z,1.84
2023-11-27T13:47:28.901Z,1.84
2023-11-27T13:48:28.878Z,1.80
2023-11-27T13:49:28.838Z,1.81
2023-11-27T13:50:28.748Z,1.80
2023-11-27T13:51:28.770Z,1.81
2023-11-27T13:52:28.784Z,1.80
2023-11-27T13:53:28.734Z,1.80
2023-11-27T13:54:28.762Z,1.84
2023-11-27T13:55:28.714Z,1.84
2023-11-27T13:56:28.695Z,1.85
2023-11-27T13:57:29.126Z,1.81
2023-11-27T13:58:28.725Z,1.81
2023-11-27T13:59:28.664Z,1.84
2023-11-27T14:00:28.675Z,1.81
2023-11-27T14:01:28.842Z,1.84
2023-11-27T14:02:29.567Z,1.87
2023-11-27T14:03:28.692Z,1.84
2023-11-27T14:04:28.852Z,1.80
2023-11-27T14:05:28.690Z,1.81
2023-11-27T14:06:28.608Z,1.84
2023-11-27T14:07:28.693Z,1.85
2023-11-27T14:08:28.553Z,1.87
2023-11-27T14:09:28.555Z,1.89
2023-11-27T14:10:28.579Z,1.88
2023-11-27T14:11:33.139Z,1.88
2023-11-27T14:12:28.519Z,1.88
2023-11-27T14:13:28.558Z,1.88
2023-11-27T14:14:28.487Z,1.87
2023-11-27T14:15:28.495Z,1.87
2023-11-27T14:16:28.627Z,1.89
2023-11-27T14:17:28.560Z,1.88
2023-11-27T14:18:28.686Z,1.88
2023-11-27T14:19:28.505Z,1.91
2023-11-27T14:20:28.450Z,1.89
2023-11-27T14:21:28.460Z,1.89
2023-11-27T14:22:28.474Z,1.89
2023-11-27T14:23:28.420Z,1.88
2023-11-27T14:24:28.416Z,1.91
2023-11-27T14:25:28.412Z,1.89
2023-11-27T14:26:28.378Z,1.91
2023-11-27T14:27:28.373Z,1.92
2023-11-27T14:28:28.433Z,1.92
2023-11-27T14:29:28.384Z,1.94
2023-11-27T14:30:28.375Z,1.94
2023-11-27T14:31:28.358Z,1.91
2023-11-27T14:32:28.311Z,1.94
2023-11-27T14:33:28.351Z,1.95
2023-11-27T14:34:28.335Z,1.95
2023-11-27T14:35:28.306Z,1.95
2023-11-27T14:36:28.279Z,1.95
2023-11-27T14:37:28.314Z,1.94
2023-11-27T14:38:28.256Z,1.95
2023-11-27T14:39:28.289Z,1.97
2023-11-27T14:40:28.276Z,1.97
2023-11-27T14:41:28.238Z,1.95
2023-11-27T14:42:28.195Z,1.95
2023-11-27T14:43:28.263Z,1.94
2023-11-27T14:44:28.183Z,1.97
2023-11-27T14:45:28.202Z,1.94
2023-11-27T14:46:28.278Z,1.95
2023-11-27T14:47:28.327Z,1.94
2023-11-27T14:48:28.167Z,1.97
2023-11-27T14:49:28.184Z,1.97
2023-11-27T14:50:28.124Z,1.97
2023-11-27T14:51:28.194Z,1.94
2023-11-27T14:52:28.746Z,1.94
2023-11-27T14:53:28.110Z,1.92
2023-11-27T14:54:28.082Z,1.95
2023-11-27T14:55:28.098Z,1.92
2023-11-27T14:56:28.250Z,1.92
2023-11-27T14:57:28.061Z,1.95
2023-11-27T14:58:28.049Z,1.94
2023-11-27T14:59:28.044Z,1.94
2023-11-27T15:00:29.285Z,1.95
2023-11-27T15:01:28.189Z,1.95
2023-11-27T15:02:28.091Z,1.94
2023-11-27T15:03:28.282Z,1.92
2023-11-27T15:04:28.049Z,1.89
2023-11-27T15:05:27.974Z,1.91
2023-11-27T15:06:27.957Z,1.89
2023-11-27T15:07:28.074Z,1.89
2023-11-27T15:08:27.933Z,1.91
2023-11-27T15:09:28.006Z,1.91
2023-11-27T15:10:27.939Z,1.92
2023-11-27T15:11:27.914Z,1.97
2023-11-27T15:12:27.897Z,1.95
2023-11-27T15:13:27.975Z,1.95
2023-11-27T15:14:27.896Z,1.92
2023-11-27T15:15:28.139Z,1.89
2023-11-27T15:16:27.980Z,1.92
2023-11-27T15:17:27.925Z,1.89
2023-11-27T15:18:27.850Z,1.94
2023-11-27T15:19:27.896Z,1.92
2023-11-27T15:20:28.238Z,1.92
2023-11-27T15:21:27.820Z,1.94
2023-11-27T15:22:27.807Z,1.94
2023-11-27T15:23:27.817Z,1.95
2023-11-27T15:24:27.772Z,1.95
2023-11-27T15:25:27.843Z,1.95
2023-11-27T15:26:27.787Z,1.94
2023-11-27T15:27:27.800Z,1.94
2023-11-27T15:28:27.769Z,1.95
2023-11-27T15:29:27.738Z,1.94
2023-11-27T15:30:27.706Z,1.95
2023-11-27T15:31:27.811Z,1.99
2023-11-27T15:32:27.735Z,1.99
2023-11-27T15:33:27.793Z,1.95
2023-11-27T15:34:29.207Z,1.99
2023-11-27T15:35:27.681Z,1.95
2023-11-27T15:36:27.652Z,1.94
2023-11-27T15:37:33.771Z,1.95
2023-11-27T15:42:05.630Z,1.99
2023-11-27T15:43:06.704Z,1.94
2023-11-27T15:44:06.588Z,1.92
2023-11-27T15:45:06.591Z,1.95
2023-11-27T15:46:09.212Z,1.94
2023-11-27T15:47:06.849Z,1.92
2023-11-27T15:48:06.638Z,1.95
2023-11-27T15:49:06.669Z,1.95
2023-11-27T15:50:06.581Z,1.95
2023-11-27T15:51:06.614Z,1.97
2023-11-27T15:52:06.554Z,1.97
2023-11-27T15:53:06.578Z,1.97
2023-11-27T15:54:06.567Z,1.95
2023-11-27T15:55:06.578Z,1.92
2023-11-27T15:56:06.522Z,1.94
2023-11-27T15:57:06.516Z,1.91
2023-11-27T15:58:06.521Z,1.92
2023-11-27T15:59:06.511Z,1.92
2023-11-27T16:00:06.510Z,1.91
2023-11-27T16:01:06.535Z,1.92
2023-11-27T16:02:06.507Z,1.89
2023-11-27T16:03:06.488Z,1.89
2023-11-27T16:04:06.462Z,1.89
2023-11-27T16:05:06.445Z,1.92
2023-11-27T16:06:06.525Z,1.92
2023-11-27T16:07:06.433Z,1.92
2023-11-27T16:08:07.391Z,1.92
2023-11-27T16:09:06.391Z,1.91
2023-11-27T16:10:06.379Z,1.91
2023-11-27T16:11:06.399Z,1.91
2023-11-27T16:12:06.643Z,1.91
2023-11-27T16:13:06.358Z,1.89
2023-11-27T16:14:06.355Z,1.91
2023-11-27T16:15:06.341Z,1.91
2023-11-27T16:16:06.322Z,1.91
2023-11-27T16:17:06.300Z,1.91
2023-11-27T16:18:06.375Z,1.92
2023-11-27T16:19:06.298Z,1.92
2023-11-27T16:20:06.289Z,1.95
2023-11-27T16:21:06.261Z,1.95
2023-11-27T16:22:06.269Z,1.94
2023-11-27T16:23:06.290Z,1.95
2023-11-27T16:24:06.250Z,1.97
2023-11-27T16:25:06.224Z,1.95
2023-11-27T16:26:06.218Z,1.99
2023-11-27T16:27:06.196Z,1.97
2023-11-27T16:28:06.217Z,1.95
2023-11-27T16:29:06.225Z,1.95
2023-11-27T16:30:06.200Z,1.97
2023-11-27T16:31:06.209Z,1.99
2023-11-27T16:32:06.252Z,1.99
2023-11-27T16:33:06.184Z,1.97
2023-11-27T16:34:06.168Z,1.94
2023-11-27T16:35:06.132Z,1.92
2023-11-27T16:36:06.141Z,1.91
2023-11-27T16:37:06.112Z,1.91
2023-11-27T16:38:06.104Z,1.92
2023-11-27T16:39:06.091Z,1.95
2023-11-27T16:40:06.085Z,1.99
2023-11-27T16:41:06.083Z,1.95
2023-11-27T16:42:06.063Z,1.94
2023-11-27T16:43:06.034Z,1.99
2023-11-27T16:44:06.042Z,1.95
2023-11-27T16:45:06.018Z,1.94
2023-11-27T16:46:06.153Z,1.92
2023-11-27T16:47:06.810Z,1.92
2023-11-27T16:48:07.879Z,1.94
2023-11-27T16:49:05.977Z,1.94
2023-11-27T16:50:05.993Z,1.95
2023-11-27T16:51:05.956Z,1.91
2023-11-27T16:52:05.992Z,1.95
2023-11-27T16:53:05.932Z,1.94
2023-11-27T16:54:05.941Z,1.95
2023-11-27T16:55:07.545Z,1.94
2023-11-27T16:56:05.938Z,1.89
2023-11-27T16:57:05.887Z,1.89
2023-11-27T16:58:06.925Z,1.88
2023-11-27T16:59:05.873Z,1.91
2023-11-27T17:00:05.887Z,1.89
2023-11-27T17:01:05.852Z,1.91
2023-11-27T17:02:06.006Z,1.87
2023-11-27T17:03:06.095Z,1.91
2023-11-27T17:04:05.943Z,1.92
2023-11-27T17:05:05.890Z,1.94
2023-11-27T17:06:05.815Z,1.91
2023-11-27T17:07:05.799Z,1.91
2023-11-27T17:08:05.799Z,1.91
2023-11-27T17:09:05.776Z,1.91
2023-11-27T17:10:05.854Z,1.95
2023-11-27T17:11:05.770Z,1.95
2023-11-27T17:12:05.764Z,1.94
2023-11-27T17:13:05.725Z,1.94
2023-11-27T17:14:05.754Z,1.94
2023-11-27T17:15:05.712Z,1.97
2023-11-27T17:16:05.746Z,1.97
2023-11-27T17:17:05.888Z,1.99
2023-11-27T17:18:05.715Z,1.97
2023-11-27T17:19:05.673Z,1.92
2023-11-27T17:20:05.683Z,1.92
2023-11-27T17:21:05.645Z,1.94
2023-11-27T17:22:05.662Z,1.95
2023-11-27T17:23:07.341Z,1.92
2023-11-27T17:24:05.658Z,1.92
2023-11-27T17:25:05.625Z,1.89
2023-11-27T17:26:05.724Z,1.88
2023-11-27T17:27:05.593Z,1.89
2023-11-27T17:28:05.598Z,1.87
2023-11-27T17:29:05.565Z,1.89
2023-11-27T17:30:05.581Z,1.88
2023-11-27T17:31:05.622Z,1.88
2023-11-27T17:32:05.560Z,1.85
2023-11-27T17:33:05.519Z,1.84
2023-11-27T17:34:05.525Z,1.84
2023-11-27T17:35:05.501Z,1.85
2023-11-27T17:36:05.507Z,1.87
2023-11-27T17:37:05.513Z,1.89
2023-11-27T17:38:05.480Z,1.91
2023-11-27T17:39:05.468Z,1.91
2023-11-27T17:41:21.768Z,1.88
2023-11-27T17:46:15.802Z,1.81
2023-11-27T17:47:16.797Z,1.78
2023-11-27T17:48:22.707Z,1.80
2023-11-27T17:49:16.714Z,1.80
2023-11-27T17:50:16.652Z,1.84
2023-11-27T17:51:16.663Z,1.85
2023-11-27T17:52:16.722Z,1.80
2023-11-27T17:53:16.646Z,1.84
2023-11-27T17:54:16.883Z,1.85
2023-11-27T17:55:16.676Z,1.87
2023-11-27T17:56:18.520Z,1.88
2023-11-27T17:57:16.614Z,1.85
2023-11-27T17:58:16.606Z,1.88
2023-11-27T17:59:16.735Z,1.88
2023-11-27T18:00:16.633Z,1.88
2023-11-27T18:01:16.577Z,1.89
2023-11-27T18:02:16.637Z,1.89
2023-11-27T18:03:16.647Z,1.88
2023-11-27T18:04:16.548Z,1.89
2023-11-27T18:05:16.517Z,1.89
2023-11-27T18:06:16.517Z,1.91
2023-11-27T18:07:16.551Z,1.92
2023-11-27T18:08:16.507Z,1.95
2023-11-27T18:09:16.480Z,1.94
2023-11-27T18:10:16.472Z,1.95
2023-11-27T18:11:16.475Z,1.94
2023-11-27T18:12:16.469Z,1.92